KIOK1: Medicine Lodge River, Kiowa

Data processed at Fri May 24 2019 23:50


All information presented herein is the property of the government of the United States of America and may be revised or deleted at any time without prior notice.
Dissemination of this information without the expressed written consent of the Public Affairs Office, Tulsa District U.S. Army Corps of Engineers is strictly prohibited.
These data are gathered electronically and, as presented, have not undergone any form of quality control. These data are not guaranteed to be valid or correct.
Go to home page.
Go to station list.
Go to home page.

Downstream station:


Previous Day
Next Day
Current Day
    
SHEF ID:       KIOK1     MEDICINE LODGE R NR KIOWA, KS
STATION TYPE:  
Regulating: Stage =    10.00, Flow =     5189

               PRECIP     STAGE  STAGE(2)  RIV-FLOW  BAT-LOAD
                   in        ft        ft       cfs      volt
              Ccp-Rev   Ccp-Rev   Ccp-Rev   Ccp-Rev   Ccp-Rev
(US/Central)
05/24 00:00      0.00      8.05      ----      3535     12.95
05/24 01:00      0.00      7.88      ----      3405     12.95
05/24 02:00      0.00      7.66      ----      3240     12.95
05/24 03:00      0.12      7.40      ----      3051     12.89
05/24 04:00      0.22      7.10      ----      2839     12.89
05/24 05:00      0.09      6.84      ----      2661     12.89
05/24 06:00      0.01      6.57      ----      2482     12.89
05/24 07:00      0.00      6.41      ----      2379     12.83
05/24 08:00      0.01      6.26      ----      2284     12.95
05/24 09:00      0.00      6.16      ----      2222     12.89
05/24 10:00      0.00      6.05      ----      2154     13.53
05/24 11:00      0.00      5.96      ----      2100     13.65
05/24 12:00      0.00      5.86      ----      2040     13.48
05/24 13:00      0.00      5.77      ----      1987     13.77
05/24 14:00      0.00      5.65      ----      1917     13.30
05/24 15:00      0.00      5.58      ----      1877     13.30
05/24 16:00      0.06      5.53      ----      1849     13.24
05/24 17:00      0.37      5.50      ----      1832     13.12
05/24 18:00      0.00      5.43      ----      1793     13.24
05/24 19:00      0.01      5.40      ----      1776     13.12
05/24 20:00      0.00      5.37      ----      1759     13.07
05/24 21:00      0.00      5.36      ----      1754     13.00
05/24 22:00      0.00      5.33      ----      1737     13.00
05/24 23:00      0.00      5.38      ----      1765     13.00